createdAt,value
2023-04-27T00:01:56.472Z,3.42
2023-04-27T00:04:25.302Z,3.60
2023-04-27T00:06:53.338Z,3.55
2023-04-27T00:09:21.616Z,3.53
2023-04-27T00:11:49.423Z,3.75
2023-04-27T00:14:17.149Z,3.20
2023-04-27T00:16:44.998Z,3.90
2023-04-27T00:19:13.987Z,3.47
2023-04-27T00:21:42.258Z,3.65
2023-04-27T00:24:09.958Z,3.38
2023-04-27T00:26:37.700Z,3.60
2023-04-27T00:29:05.416Z,3.28
2023-04-27T00:31:33.200Z,3.33
2023-04-27T00:34:01.169Z,3.45
2023-04-27T00:36:28.960Z,3.42
2023-04-27T00:38:56.641Z,4.10
2023-04-27T00:41:25.447Z,3.17
2023-04-27T00:43:54.018Z,3.58
2023-04-27T00:46:21.876Z,3.20
2023-04-27T00:48:49.655Z,3.33
2023-04-27T00:51:17.401Z,2.78
2023-04-27T00:53:45.224Z,2.75
2023-04-27T00:56:13.422Z,2.92
2023-04-27T00:58:41.115Z,4.03
2023-04-27T01:01:10.530Z,3.60
2023-04-27T01:03:38.523Z,2.92
2023-04-27T01:06:07.523Z,2.72
2023-04-27T01:08:36.660Z,3.10
2023-04-27T01:11:04.467Z,2.85
2023-04-27T01:13:32.582Z,3.35
2023-04-27T01:16:00.353Z,3.15
2023-04-27T01:18:28.081Z,3.60
2023-04-27T01:20:57.962Z,3.00
2023-04-27T01:23:26.617Z,2.92
2023-04-27T01:25:54.330Z,3.15
2023-04-27T01:28:22.046Z,3.10
2023-04-27T01:30:49.910Z,3.00
2023-04-27T01:33:18.612Z,2.75
2023-04-27T01:35:49.133Z,3.37
2023-04-27T01:38:17.293Z,3.22
2023-04-27T01:40:45.034Z,3.30
2023-04-27T01:43:14.178Z,2.90
2023-04-27T01:45:42.025Z,2.75
2023-04-27T01:48:09.750Z,2.80
2023-04-27T01:50:37.557Z,2.83
2023-04-27T01:53:07.548Z,2.65
2023-04-27T01:55:38.484Z,2.78
2023-04-27T01:58:06.321Z,3.47
2023-04-27T02:00:34.131Z,3.70
2023-04-27T02:03:02.637Z,3.53
2023-04-27T02:08:15.775Z,7.07
2023-04-27T02:10:43.628Z,5.63
2023-04-27T02:13:11.404Z,4.10
2023-04-27T02:15:39.200Z,3.65
2023-04-27T02:18:07.001Z,3.00
2023-04-27T02:20:34.815Z,2.80
2023-04-27T02:28:33.332Z,2.90
2023-04-27T02:31:01.971Z,2.55
2023-04-27T02:33:29.660Z,2.72
2023-04-27T02:35:58.229Z,2.67
2023-04-27T02:38:25.978Z,2.53
2023-04-27T02:40:55.058Z,2.40
2023-04-27T02:43:22.831Z,2.30
2023-04-27T02:45:50.719Z,2.65
2023-04-27T02:48:18.307Z,2.30
2023-04-27T02:50:46.116Z,2.25
2023-04-27T02:53:13.741Z,2.50
2023-04-27T02:55:49.778Z,3.00
2023-04-27T02:58:18.400Z,2.80
2023-04-27T03:00:48.223Z,3.22
2023-04-27T03:03:16.547Z,3.40
2023-04-27T03:05:44.279Z,3.35
2023-04-27T03:08:11.958Z,3.88
2023-04-27T03:10:44.902Z,3.25
2023-04-27T03:13:15.861Z,3.50
2023-04-27T03:15:44.754Z,3.00
2023-04-27T03:18:13.197Z,3.35
2023-04-27T03:20:42.005Z,3.10
2023-04-27T03:23:09.712Z,2.40
2023-04-27T03:25:37.466Z,2.63
2023-04-27T03:28:05.265Z,2.88
2023-04-27T03:30:33.033Z,2.80
2023-04-27T03:33:38.910Z,2.70
2023-04-27T03:36:27.039Z,2.22
2023-04-27T03:39:50.796Z,2.70
2023-04-27T03:43:33.408Z,2.95
2023-04-27T03:46:38.263Z,2.05
2023-04-27T03:50:21.431Z,2.22
2023-04-27T03:53:08.758Z,2.58
2023-04-27T03:56:13.905Z,2.60
2023-04-27T03:59:18.924Z,1.80
2023-04-27T04:02:28.190Z,2.20
2023-04-27T04:04:56.260Z,2.17
2023-04-27T04:08:58.395Z,2.20
2023-04-27T04:12:03.755Z,2.30
2023-04-27T04:15:27.482Z,2.20
2023-04-27T04:18:33.879Z,2.10
2023-04-27T04:22:16.297Z,2.40
2023-04-27T04:25:21.360Z,2.40
2023-04-27T04:28:45.607Z,2.88
2023-04-27T04:31:32.035Z,2.88
2023-04-27T04:35:15.149Z,3.65
2023-04-27T04:38:01.467Z,16.15
2023-04-27T04:41:06.810Z,7.40
2023-04-27T04:44:11.958Z,5.32
2023-04-27T04:46:58.678Z,3.72
2023-04-27T04:50:04.954Z,3.28
2023-04-27T04:53:29.180Z,2.80
2023-04-27T04:56:53.148Z,2.78
2023-04-27T04:59:58.617Z,2.85
2023-04-27T05:03:03.730Z,2.55
2023-04-27T05:06:46.073Z,7.30
2023-04-27T05:10:10.065Z,3.90
2023-04-27T05:12:56.664Z,2.72
2023-04-27T05:16:20.599Z,2.95
2023-04-27T05:19:43.917Z,2.67
2023-04-27T05:22:30.141Z,2.72
2023-04-27T05:25:16.454Z,2.75
2023-04-27T05:28:21.535Z,3.35
2023-04-27T05:31:45.308Z,2.78
2023-04-27T05:34:31.788Z,2.70
2023-04-27T05:37:17.832Z,2.85
2023-04-27T05:40:41.377Z,3.15
2023-04-27T05:43:27.465Z,2.70
2023-04-27T05:45:55.146Z,3.38
2023-04-27T05:48:41.726Z,2.60
2023-04-27T05:51:28.502Z,2.90
2023-04-27T05:55:11.098Z,3.15
2023-04-27T05:58:54.003Z,3.00
2023-04-27T06:01:40.695Z,3.58
2023-04-27T06:05:04.705Z,4.43
2023-04-27T06:08:46.956Z,3.17
2023-04-27T06:11:51.992Z,3.25
2023-04-27T06:15:17.060Z,2.55
2023-04-27T06:18:21.776Z,2.40
2023-04-27T06:21:08.371Z,2.60
2023-04-27T06:24:51.284Z,2.70
2023-04-27T06:28:15.533Z,2.55
2023-04-27T06:31:20.500Z,2.70
2023-04-27T06:34:25.652Z,2.75
2023-04-27T06:37:49.418Z,3.22
2023-04-27T06:40:54.985Z,2.70
2023-04-27T06:44:00.285Z,2.72
2023-04-27T06:47:05.518Z,2.42
2023-04-27T06:50:29.117Z,2.60
2023-04-27T06:53:55.318Z,2.45
2023-04-27T06:57:00.452Z,2.75
2023-04-27T07:00:05.374Z,2.58
2023-04-27T07:02:51.962Z,2.72
2023-04-27T07:05:59.153Z,3.03
2023-04-27T07:09:27.506Z,2.95
2023-04-27T07:12:33.732Z,3.25
2023-04-27T07:16:16.574Z,2.78
2023-04-27T07:19:40.383Z,2.83
2023-04-27T07:23:49.144Z,3.00
2023-04-27T07:26:54.420Z,3.17
2023-04-27T07:30:00.654Z,3.30
2023-04-27T07:33:07.049Z,3.50
2023-04-27T07:36:12.614Z,3.72
2023-04-27T07:39:39.691Z,3.88
2023-04-27T07:42:46.781Z,3.83
2023-04-27T07:46:12.699Z,2.92
2023-04-27T07:49:02.069Z,3.40
2023-04-27T07:52:25.844Z,2.95
2023-04-27T07:55:33.070Z,3.35
2023-04-27T07:58:38.587Z,3.60
2023-04-27T08:02:22.305Z,3.65
2023-04-27T08:05:28.605Z,3.50
2023-04-27T08:08:34.264Z,2.63
2023-04-27T08:11:58.724Z,2.88
2023-04-27T08:15:42.414Z,2.65
2023-04-27T08:18:51.360Z,2.80
2023-04-27T08:21:57.877Z,2.53
2023-04-27T08:24:45.173Z,2.58
2023-04-27T08:28:47.028Z,2.53
2023-04-27T08:32:11.840Z,2.72
2023-04-27T08:35:55.470Z,2.72
2023-04-27T08:39:22.355Z,2.90
2023-04-27T08:42:28.530Z,2.58
2023-04-27T08:45:54.154Z,2.60
2023-04-27T08:49:18.636Z,2.42
2023-04-27T08:52:48.997Z,2.25
2023-04-27T08:56:13.058Z,1.95
2023-04-27T08:59:21.174Z,3.60
2023-04-27T09:02:46.395Z,2.70
2023-04-27T09:06:15.345Z,2.83
2023-04-27T09:09:21.313Z,4.82
2023-04-27T09:12:09.018Z,3.10
2023-04-27T09:15:53.042Z,3.25
2023-04-27T09:19:02.226Z,2.58
2023-04-27T09:22:11.501Z,2.83
2023-04-27T09:25:39.043Z,2.65
2023-04-27T09:29:22.907Z,2.25
2023-04-27T09:32:38.199Z,2.47
2023-04-27T09:35:52.183Z,3.13
2023-04-27T09:39:17.395Z,2.55
2023-04-27T09:43:01.054Z,2.40
2023-04-27T09:46:27.294Z,2.70
2023-04-27T09:50:26.315Z,2.30
2023-04-27T09:54:27.896Z,2.47
2023-04-27T09:58:03.851Z,2.38
2023-04-27T10:01:50.752Z,2.88
2023-04-27T10:05:15.128Z,2.67
2023-04-27T10:08:21.614Z,2.78
2023-04-27T10:11:27.816Z,3.15
2023-04-27T10:15:11.021Z,2.80
2023-04-27T10:18:05.725Z,3.10
2023-04-27T10:21:19.907Z,2.88
2023-04-27T10:24:12.855Z,3.15
2023-04-27T10:27:23.164Z,3.30
2023-04-27T10:30:10.202Z,2.90
2023-04-27T10:33:36.013Z,2.80
2023-04-27T10:36:41.332Z,2.47
2023-04-27T10:39:54.907Z,2.30
2023-04-27T10:43:37.982Z,2.33
2023-04-27T10:47:00.537Z,2.38
2023-04-27T10:50:06.910Z,2.50
2023-04-27T10:53:50.147Z,2.20
2023-04-27T10:57:03.111Z,2.80
2023-04-27T11:00:15.978Z,2.45
2023-04-27T11:03:41.835Z,2.25
2023-04-27T11:06:11.758Z,2.30
2023-04-27T11:09:55.179Z,2.30
2023-04-27T11:12:43.042Z,2.22
2023-04-27T11:15:48.565Z,2.78
2023-04-27T11:19:33.711Z,2.05
2023-04-27T11:22:24.803Z,2.03
2023-04-27T11:25:49.634Z,2.03
2023-04-27T11:29:19.087Z,2.20
2023-04-27T11:32:25.519Z,1.90
2023-04-27T11:36:08.144Z,2.17
2023-04-27T11:39:32.570Z,1.75
2023-04-27T11:42:28.814Z,2.17
2023-04-27T11:45:55.398Z,1.90
2023-04-27T11:49:22.272Z,2.00
2023-04-27T11:52:29.240Z,1.88
2023-04-27T11:55:56.197Z,1.98
2023-04-27T11:59:39.711Z,2.10
2023-04-27T12:03:05.490Z,1.85
2023-04-27T12:06:32.996Z,1.67
2023-04-27T12:09:19.968Z,2.03
2023-04-27T12:13:02.804Z,3.10
2023-04-27T12:16:27.786Z,2.00
2023-04-27T12:20:11.480Z,1.90
2023-04-27T12:22:58.532Z,2.10
2023-04-27T12:26:05.229Z,1.90
2023-04-27T12:29:11.456Z,1.58
2023-04-27T12:31:59.294Z,1.48
2023-04-27T12:34:47.846Z,1.75
2023-04-27T12:38:13.214Z,1.60
2023-04-27T12:41:22.641Z,1.70
2023-04-27T12:45:25.034Z,1.45
2023-04-27T12:48:49.370Z,1.50
2023-04-27T12:51:58.462Z,1.60
2023-04-27T12:55:33.209Z,1.42
2023-04-27T12:58:39.478Z,1.13
2023-04-27T13:01:39.021Z,1.27
2023-04-27T13:04:48.487Z,1.35
2023-04-27T13:07:54.211Z,1.25
2023-04-27T13:10:41.908Z,1.42
2023-04-27T13:14:25.320Z,3.22
2023-04-27T13:18:27.273Z,1.75
2023-04-27T13:21:14.084Z,1.48
2023-04-27T13:24:41.347Z,1.35
2023-04-27T13:27:28.934Z,1.70
2023-04-27T13:30:16.721Z,1.65
2023-04-27T13:33:41.094Z,1.35
2023-04-27T13:37:45.509Z,2.67
2023-04-27T13:40:51.181Z,2.25
2023-04-27T13:44:53.146Z,1.55
2023-04-27T13:48:01.465Z,1.40
2023-04-27T13:51:43.984Z,1.20
2023-04-27T13:55:08.155Z,3.75
2023-04-27T13:57:58.587Z,1.70
2023-04-27T14:01:22.538Z,1.50
2023-04-27T14:04:09.702Z,0.90
2023-04-27T14:07:53.381Z,1.02
2023-04-27T14:10:40.475Z,1.05
2023-04-27T14:13:28.243Z,1.10
2023-04-27T14:17:11.971Z,0.88
2023-04-27T14:20:36.264Z,0.98
2023-04-27T14:24:00.282Z,0.95
2023-04-27T14:27:09.319Z,1.00
2023-04-27T14:30:33.590Z,0.90
2023-04-27T14:33:21.024Z,1.60
2023-04-27T14:36:45.287Z,1.17
2023-04-27T14:39:51.793Z,0.98
2023-04-27T14:43:35.037Z,1.00
2023-04-27T14:47:19.809Z,1.15
2023-04-27T14:50:07.150Z,1.15
2023-04-27T14:53:31.682Z,1.10
2023-04-27T14:56:36.968Z,1.10
2023-04-27T15:00:20.250Z,1.10
2023-04-27T15:03:26.232Z,1.10
2023-04-27T15:07:10.419Z,1.27
2023-04-27T15:10:53.711Z,1.08
2023-04-27T15:14:36.967Z,0.90
2023-04-27T15:17:43.367Z,1.00
2023-04-27T15:20:30.704Z,1.05
2023-04-27T15:23:38.005Z,1.02
2023-04-27T15:27:40.893Z,0.98
2023-04-27T15:31:24.502Z,1.20
2023-04-27T15:34:12.167Z,0.95
2023-04-27T15:36:58.440Z,0.90
2023-04-27T15:40:08.032Z,1.02
2023-04-27T15:42:51.095Z,1.05
2023-04-27T15:45:21.034Z,1.20
2023-04-27T15:48:13.069Z,1.00
2023-04-27T15:50:41.747Z,1.10
2023-04-27T15:53:36.524Z,1.02
2023-04-27T15:56:08.172Z,0.90
2023-04-27T15:58:37.115Z,1.05
2023-04-27T16:01:05.775Z,0.98
2023-04-27T16:03:35.612Z,0.85
2023-04-27T16:06:11.076Z,0.90
2023-04-27T16:08:40.543Z,1.00
2023-04-27T16:11:13.054Z,0.90
2023-04-27T16:13:41.384Z,1.08
2023-04-27T16:16:09.743Z,1.10
2023-04-27T16:18:38.917Z,0.95
2023-04-27T16:21:06.731Z,0.88
2023-04-27T16:23:35.107Z,0.93
2023-04-27T16:26:02.967Z,0.98
2023-04-27T16:28:32.073Z,1.08
2023-04-27T16:31:00.163Z,0.88
2023-04-27T16:33:27.898Z,0.95
2023-04-27T16:35:59.533Z,1.20
2023-04-27T16:38:29.609Z,0.98
2023-04-27T16:41:08.452Z,0.93
2023-04-27T16:43:37.412Z,0.90
2023-04-27T16:46:08.396Z,0.90
2023-04-27T16:48:40.176Z,0.77
2023-04-27T16:51:09.922Z,1.10
2023-04-27T16:53:38.312Z,1.38
2023-04-27T16:56:07.425Z,1.17
2023-04-27T16:58:36.438Z,1.00
2023-04-27T17:01:05.602Z,1.00
2023-04-27T17:03:36.260Z,1.25
2023-04-27T17:06:04.668Z,0.98
2023-04-27T17:08:34.462Z,0.90
2023-04-27T17:11:02.288Z,1.02
2023-04-27T17:13:31.749Z,1.30
2023-04-27T17:16:00.906Z,1.17
2023-04-27T17:18:29.276Z,1.10
2023-04-27T17:20:58.036Z,0.98
2023-04-27T17:23:25.954Z,1.00
2023-04-27T17:25:54.854Z,1.15
2023-04-27T17:28:25.088Z,1.25
2023-04-27T17:30:53.521Z,1.00
2023-04-27T17:33:22.414Z,0.90
2023-04-27T17:35:50.665Z,1.05
2023-04-27T17:38:19.544Z,0.80
2023-04-27T17:40:47.963Z,1.20
2023-04-27T17:43:17.609Z,0.90
2023-04-27T17:45:46.988Z,1.10
2023-04-27T17:49:30.853Z,1.40
2023-04-27T17:52:36.427Z,1.50
2023-04-27T17:55:04.801Z,1.65
2023-04-27T17:57:51.671Z,1.60
2023-04-27T18:01:36.811Z,1.80
2023-04-27T18:04:43.117Z,1.70
2023-04-27T18:08:07.700Z,2.35
2023-04-27T18:11:13.141Z,1.60
2023-04-27T18:14:37.540Z,1.30
2023-04-27T18:18:22.561Z,1.42
2023-04-27T18:22:07.837Z,1.30
2023-04-27T18:25:35.031Z,1.30
2023-04-27T18:29:00.040Z,1.67
2023-04-27T18:32:07.415Z,1.30
2023-04-27T18:35:31.714Z,1.27
2023-04-27T18:39:34.299Z,1.52
2023-04-27T18:42:21.163Z,1.90
2023-04-27T18:45:28.804Z,1.30
2023-04-27T18:48:54.329Z,1.40
2023-04-27T18:51:35.378Z,1.65
2023-04-27T18:54:41.041Z,1.85
2023-04-27T18:57:47.361Z,2.13
2023-04-27T19:01:49.412Z,2.10
2023-04-27T19:04:19.749Z,1.90
2023-04-27T19:06:51.516Z,2.25
2023-04-27T19:09:40.819Z,2.57
2023-04-27T19:12:47.936Z,1.80
2023-04-27T19:16:13.183Z,1.50
2023-04-27T19:19:01.533Z,1.80
2023-04-27T19:22:07.098Z,1.23
2023-04-27T19:29:14.126Z,1.52
2023-04-27T19:32:24.165Z,1.50
2023-04-27T19:35:49.474Z,1.58
2023-04-27T19:39:51.624Z,1.75
2023-04-27T19:43:15.691Z,1.80
2023-04-27T19:46:25.743Z,1.60
2023-04-27T19:49:36.708Z,1.63
2023-04-27T19:52:26.125Z,1.85
2023-04-27T19:54:56.083Z,1.40
2023-04-27T19:57:26.981Z,1.73
2023-04-27T19:59:56.377Z,1.38
2023-04-27T20:02:28.337Z,1.85
2023-04-27T20:04:59.726Z,1.70
2023-04-27T20:07:28.189Z,1.77
2023-04-27T20:09:58.721Z,1.70
2023-04-27T20:12:47.450Z,1.47
2023-04-27T20:15:15.477Z,1.60
2023-04-27T20:17:44.283Z,1.77
2023-04-27T20:20:16.092Z,1.70
2023-04-27T20:22:46.982Z,2.30
2023-04-27T20:25:15.205Z,1.95
2023-04-27T20:27:43.432Z,2.00
2023-04-27T20:30:14.295Z,2.40
2023-04-27T20:32:45.056Z,2.30
2023-04-27T20:35:13.873Z,2.03
2023-04-27T20:37:43.961Z,2.10
2023-04-27T20:40:17.035Z,2.20
2023-04-27T20:42:45.948Z,2.00
2023-04-27T20:45:14.653Z,1.73
2023-04-27T20:47:43.554Z,1.73
2023-04-27T20:50:14.001Z,1.73
2023-04-27T20:52:43.157Z,1.67
2023-04-27T20:55:15.710Z,1.90
2023-04-27T20:57:49.002Z,1.73
2023-04-27T21:00:19.250Z,1.80
2023-04-27T21:02:48.525Z,2.20
2023-04-27T21:05:20.081Z,1.98
2023-04-27T21:10:18.067Z,2.60
2023-04-27T21:12:46.931Z,2.17
2023-04-27T21:15:15.514Z,2.30
2023-04-27T21:17:43.845Z,2.17
2023-04-27T21:20:12.470Z,1.90
2023-04-27T21:22:42.065Z,2.22
2023-04-27T21:25:11.302Z,2.85
2023-04-27T21:27:40.871Z,2.28
2023-04-27T21:30:11.103Z,2.22
2023-04-27T21:32:39.948Z,2.10
2023-04-27T21:44:33.392Z,2.42
2023-04-27T21:47:01.445Z,2.30
2023-04-27T21:49:29.723Z,2.40
2023-04-27T21:51:57.995Z,2.47
2023-04-27T21:54:31.916Z,2.20
2023-04-27T21:57:03.406Z,2.35
2023-04-27T21:59:33.103Z,2.38
2023-04-27T22:02:06.815Z,2.90
2023-04-27T22:04:38.676Z,2.78
2023-04-27T22:07:09.799Z,3.10
2023-04-27T22:09:38.546Z,3.33
2023-04-27T22:12:06.620Z,3.30
2023-04-27T22:14:35.499Z,3.58
2023-04-27T22:17:04.653Z,3.00
2023-04-27T22:19:33.000Z,2.80
2023-04-27T22:22:01.139Z,2.80
2023-04-27T22:24:29.924Z,2.63
2023-04-27T22:32:34.957Z,3.55
2023-04-27T22:35:03.036Z,3.42
2023-04-27T22:37:31.795Z,3.30
2023-04-27T22:40:00.020Z,3.67
2023-04-27T22:42:28.605Z,3.17
2023-04-27T22:44:56.572Z,3.03
2023-04-27T22:47:25.665Z,2.85
2023-04-27T22:49:54.714Z,2.90
2023-04-27T22:52:24.995Z,2.60
2023-04-27T22:54:55.420Z,3.03
2023-04-27T22:57:23.297Z,2.80
2023-04-27T22:59:52.525Z,2.70
2023-04-27T23:02:20.572Z,3.00
2023-04-27T23:04:48.701Z,3.40
2023-04-27T23:07:18.664Z,3.03
2023-04-27T23:09:48.172Z,2.97
2023-04-27T23:12:16.489Z,2.70
2023-04-27T23:14:47.233Z,2.80
2023-04-27T23:17:15.549Z,2.95
2023-04-27T23:19:45.220Z,3.10
2023-04-27T23:22:14.641Z,3.13
2023-04-27T23:24:43.274Z,3.00
2023-04-27T23:27:12.155Z,3.33
2023-04-27T23:29:40.108Z,2.70
2023-04-27T23:32:08.797Z,2.78
2023-04-27T23:34:40.691Z,2.78
2023-04-27T23:37:10.962Z,2.53
2023-04-27T23:39:39.046Z,2.83
2023-04-27T23:42:07.118Z,2.92
2023-04-27T23:44:35.669Z,2.88
2023-04-27T23:47:06.355Z,2.60
2023-04-27T23:49:37.064Z,3.03
2023-04-27T23:52:05.729Z,3.00
2023-04-27T23:54:34.848Z,2.72
2023-04-27T23:57:04.461Z,2.97
2023-04-27T23:59:37.906Z,2.58
